Time;durP1;ratioP1;P1;durP2;ratioP2;P2;SDS_P1;SDS_P2;PMS_P1;PMS_P2;Temp;Humidity;BMP_temperature;BMP_pressure;BME280_temperature;BME280_humidity;BME280_pressure;Samples;Min_cycle;Max_cycle;Signal;HPM_P1;HPM_P2
2022/02/23 00:01:14;;;;;;;3.70;1.02;;;;;;;3.41;76.37;97960.28;5062525;28;20021;-57
2022/02/23 00:03:40;;;;;;;1.52;1.23;;;;;;;3.49;75.94;97959.28;5062015;28;20029;-58
2022/02/23 00:06:06;;;;;;;1.38;1.27;;;;;;;3.48;75.87;97960.13;5062199;28;20116;-59
2022/02/23 00:08:31;;;;;;;1.50;1.40;;;;;;;3.44;75.80;97960.22;5062039;28;20210;-59
2022/02/23 00:10:57;;;;;;;1.63;1.50;;;;;;;3.53;75.33;97968.56;5062339;28;20043;-59
2022/02/23 00:13:23;;;;;;;1.27;1.17;;;;;;;3.50;75.61;97958.41;5062047;28;20012;-59
2022/02/23 00:15:48;;;;;;;1.30;1.20;;;;;;;3.55;75.02;97959.13;5049682;28;20040;-59
2022/02/23 00:18:17;;;;;;;1.30;1.20;;;;;;;3.49;74.75;97970.34;5062079;28;20025;-59
2022/02/23 00:20:43;;;;;;;1.48;1.38;;;;;;;3.44;75.90;97973.00;5062186;28;20029;-59
2022/02/23 00:23:09;;;;;;;2.05;1.23;;;;;;;3.42;75.18;97969.66;5060910;28;20043;-60
2022/02/23 00:25:34;;;;;;;1.90;1.30;;;;;;;3.49;75.42;97974.63;5060956;28;20028;-59
2022/02/23 00:28:00;;;;;;;2.25;1.65;;;;;;;3.45;75.43;97973.88;5062226;28;20055;-59
2022/02/23 00:30:26;;;;;;;1.75;1.40;;;;;;;3.48;75.29;97975.50;5061747;28;20067;-59
2022/02/23 00:32:51;;;;;;;1.50;1.23;;;;;;;3.57;75.37;97981.25;5061896;28;20035;-59
2022/02/23 00:35:17;;;;;;;1.48;1.33;;;;;;;3.51;75.57;97981.41;5060914;28;20040;-59
2022/02/23 00:37:42;;;;;;;1.85;1.50;;;;;;;3.51;75.07;97988.25;5062048;28;20323;-59
2022/02/23 00:40:08;;;;;;;1.55;1.30;;;;;;;3.52;75.44;97984.78;5060811;28;20070;-59
2022/02/23 00:42:34;;;;;;;1.40;1.30;;;;;;;3.56;75.57;97996.66;5062012;28;20017;-59
2022/02/23 00:45:00;;;;;;;1.20;1.10;;;;;;;3.50;75.29;97997.63;5062322;28;20021;-58
2022/02/23 00:47:25;;;;;;;1.27;1.17;;;;;;;3.53;75.04;97996.72;5061964;28;20209;-58
2022/02/23 00:49:51;;;;;;;1.50;1.30;;;;;;;3.45;75.11;98002.84;5062006;28;20079;-58
2022/02/23 00:52:17;;;;;;;1.20;1.10;;;;;;;3.48;74.52;98006.19;5061768;28;20032;-58
2022/02/23 00:54:42;;;;;;;1.83;1.38;;;;;;;3.44;74.70;98001.16;5061679;28;20254;-58
2022/02/23 00:57:08;;;;;;;1.50;1.40;;;;;;;3.44;74.78;98011.38;5061840;28;20013;-58
2022/02/23 00:59:33;;;;;;;2.20;1.20;;;;;;;3.51;74.71;98016.41;5060685;28;20025;-60
2022/02/23 01:01:59;;;;;;;1.17;1.05;;;;;;;3.55;74.48;98016.28;5062240;28;20025;-60
2022/02/23 01:04:25;;;;;;;1.10;1.00;;;;;;;3.57;74.56;98023.94;5061850;28;20090;-60
2022/02/23 01:06:50;;;;;;;1.27;1.10;;;;;;;3.60;74.33;98019.59;5060537;28;20036;-60
2022/02/23 01:09:16;;;;;;;1.38;1.23;;;;;;;3.49;74.29;98018.13;5047859;28;20025;-60
2022/02/23 01:11:42;;;;;;;1.48;1.10;;;;;;;3.54;74.68;98017.16;5061942;28;20036;-59
2022/02/23 01:14:09;;;;;;;2.15;1.40;;;;;;;3.53;74.81;98028.25;5060765;28;20025;-59
2022/02/23 01:16:35;;;;;;;1.48;1.17;;;;;;;3.49;74.58;98013.00;5061700;28;20070;-60
2022/02/23 01:19:00;;;;;;;1.48;1.30;;;;;;;3.61;74.34;98028.13;5061365;28;20360;-60
2022/02/23 01:21:27;;;;;;;1.73;1.52;;;;;;;3.60;73.73;98024.69;5061428;28;20097;-60
2022/02/23 01:23:53;;;;;;;3.58;1.10;;;;;;;3.53;74.89;98020.59;5061721;28;20032;-59
2022/02/23 01:26:19;;;;;;;1.40;1.23;;;;;;;3.51;74.32;98027.47;5061639;28;20051;-60
2022/02/23 01:28:45;;;;;;;1.75;1.30;;;;;;;3.55;74.92;98035.91;5064550;28;20075;-59
2022/02/23 01:31:11;;;;;;;1.20;1.10;;;;;;;3.41;74.34;98039.59;5064112;28;20017;-59
2022/02/23 01:33:36;;;;;;;1.20;1.10;;;;;;;3.31;75.14;98034.66;5064553;28;20031;-59
2022/02/23 01:36:02;;;;;;;2.15;1.23;;;;;;;3.39;75.51;98049.03;5065069;28;20033;-62
2022/02/23 01:38:28;;;;;;;1.27;1.17;;;;;;;3.41;74.90;98049.00;5065289;28;20071;-60
2022/02/23 01:40:54;;;;;;;1.10;1.00;;;;;;;3.34;75.03;98061.06;5064989;28;20215;-60
2022/02/23 01:43:20;;;;;;;1.20;1.10;;;;;;;3.39;75.38;98055.84;5064616;28;20056;-61
2022/02/23 01:45:46;;;;;;;1.02;1.00;;;;;;;3.35;75.14;98049.09;5065131;28;20047;-61
2022/02/23 01:48:12;;;;;;;1.35;1.25;;;;;;;3.40;75.78;98049.88;5064401;28;20036;-61
2022/02/23 01:50:39;;;;;;;1.00;1.00;;;;;;;3.44;75.26;98054.88;5064626;28;20025;-61
2022/02/23 01:53:05;;;;;;;1.17;1.08;;;;;;;3.37;75.22;98055.03;5043744;28;20092;-61
2022/02/23 01:55:32;;;;;;;1.25;1.10;;;;;;;3.42;75.90;98054.09;5050593;28;20032;-60
2022/02/23 01:57:57;;;;;;;1.40;1.30;;;;;;;3.39;75.41;98054.16;5064887;28;20027;-61
2022/02/23 02:00:23;;;;;;;1.73;1.40;;;;;;;3.30;75.48;98056.03;5064692;28;20028;-59
2022/02/23 02:02:49;;;;;;;1.20;1.10;;;;;;;3.35;75.37;98067.00;5065079;28;20352;-60
2022/02/23 02:05:16;;;;;;;1.95;1.25;;;;;;;3.38;75.55;98064.41;5064925;28;20044;-60
2022/02/23 02:07:42;;;;;;;1.48;1.20;;;;;;;3.32;75.76;98072.19;5060513;28;20025;-60
2022/02/23 02:10:09;;;;;;;1.33;1.20;;;;;;;3.41;75.88;98080.53;5064650;28;20047;-60
2022/02/23 02:12:36;;;;;;;1.30;1.20;;;;;;;3.39;75.57;98072.06;5064563;28;20048;-60
2022/02/23 02:15:04;;;;;;;2.80;1.25;;;;;;;2.92;75.44;98008.09;5064524;28;20066;-61
2022/02/23 02:17:30;;;;;;;1.73;1.30;;;;;;;3.35;76.54;98072.13;5064448;28;20025;-60
2022/02/23 02:19:56;;;;;;;1.63;1.35;;;;;;;3.47;76.07;98073.63;5064341;28;20127;-60
2022/02/23 02:22:22;;;;;;;1.30;1.20;;;;;;;3.39;76.46;98076.31;5064591;28;20106;-61
2022/02/23 02:24:48;;;;;;;1.02;1.00;;;;;;;3.38;76.09;98084.88;5064692;28;20271;-60
2022/02/23 02:27:15;;;;;;;1.45;1.20;;;;;;;2.97;76.02;98017.41;5063338;28;20075;-60
2022/02/23 02:29:41;;;;;;;1.35;1.25;;;;;;;3.32;76.16;98077.28;5063594;28;20029;-59
2022/02/23 02:32:09;;;;;;;1.48;1.23;;;;;;;3.27;76.26;98085.91;5051221;28;20325;-60
2022/02/23 02:34:35;;;;;;;1.60;1.50;;;;;;;3.36;76.60;98092.56;5060523;28;20127;-60
2022/02/23 02:37:01;;;;;;;1.77;1.50;;;;;;;3.45;75.92;98097.53;5063007;28;20039;-60
2022/02/23 02:39:26;;;;;;;1.30;1.20;;;;;;;3.23;76.63;98076.59;5061882;28;20032;-60
2022/02/23 02:41:53;;;;;;;1.55;1.33;;;;;;;3.28;76.43;98100.38;5061429;28;20486;-60
2022/02/23 02:44:19;;;;;;;1.40;1.30;;;;;;;3.30;76.12;98102.91;5063880;28;20040;-59
2022/02/23 02:46:45;;;;;;;1.30;1.20;;;;;;;3.43;75.68;98108.66;5062588;28;20057;-60
2022/02/23 02:49:12;;;;;;;1.67;1.27;;;;;;;3.49;75.72;98102.56;5062876;28;20025;-60
2022/02/23 02:51:37;;;;;;;1.50;1.40;;;;;;;3.50;75.57;98106.84;5063819;28;20095;-60
2022/02/23 02:54:04;;;;;;;1.30;1.20;;;;;;;3.47;75.64;98110.28;5063419;28;20222;-60
2022/02/23 02:56:30;;;;;;;3.40;1.70;;;;;;;3.27;75.98;98103.81;5063521;28;20096;-60
2022/02/23 02:58:56;;;;;;;1.98;1.42;;;;;;;3.36;76.02;98107.91;5062632;28;20113;-60
2022/02/23 03:01:26;;;;;;;2.10;1.50;;;;;;;3.34;76.16;98098.59;5062280;28;20183;-61
2022/02/23 03:03:53;;;;;;;1.23;1.17;;;;;;;3.35;75.77;98110.50;5063184;28;20256;-62
2022/02/23 03:06:19;;;;;;;1.50;1.40;;;;;;;3.13;76.81;98122.84;5063265;28;20028;-60
2022/02/23 03:08:46;;;;;;;1.40;1.30;;;;;;;3.33;76.33;98118.19;5059129;28;20178;-60
2022/02/23 03:11:12;;;;;;;2.53;1.35;;;;;;;3.30;77.23;98117.44;5063573;28;20031;-59
2022/02/23 03:13:38;;;;;;;2.05;1.60;;;;;;;3.30;76.46;98130.22;5063508;28;20031;-60
2022/02/23 03:16:05;;;;;;;1.25;1.15;;;;;;;3.30;76.65;98125.09;5063530;28;20087;-60
2022/02/23 03:18:31;;;;;;;1.40;1.30;;;;;;;3.28;76.98;98117.47;5063212;28;20056;-60
2022/02/23 03:20:57;;;;;;;1.80;1.40;;;;;;;3.22;76.90;98131.19;5062402;28;20071;-60
2022/02/23 03:23:23;;;;;;;1.25;1.15;;;;;;;3.24;77.32;98124.31;5063206;28;20029;-60
2022/02/23 03:25:48;;;;;;;1.35;1.25;;;;;;;3.15;77.98;98129.63;5063100;28;20020;-60
2022/02/23 03:28:14;;;;;;;1.67;1.40;;;;;;;3.21;78.26;98132.06;5061912;28;20036;-59
2022/02/23 03:30:40;;;;;;;1.33;1.23;;;;;;;3.11;78.10;98133.09;5062000;28;20095;-59
2022/02/23 03:33:07;;;;;;;1.88;1.45;;;;;;;3.22;78.43;98140.56;5062973;28;20048;-59
2022/02/23 03:35:32;;;;;;;1.90;1.55;;;;;;;3.29;78.69;98144.72;5062901;28;20029;-60
2022/02/23 03:37:58;;;;;;;1.92;1.25;;;;;;;3.35;78.59;98148.88;5062850;28;20036;-60
2022/02/23 03:40:25;;;;;;;2.22;1.30;;;;;;;3.33;78.92;98133.56;5062852;28;20098;-60
2022/02/23 03:42:52;;;;;;;1.17;1.10;;;;;;;3.32;78.52;98142.13;5061642;28;20046;-59
2022/02/23 03:45:17;;;;;;;3.28;1.48;;;;;;;3.24;78.92;98144.78;5062833;28;20033;-59
2022/02/23 03:47:43;;;;;;;1.40;1.30;;;;;;;3.33;78.90;98141.22;5062594;28;20025;-59
2022/02/23 03:50:09;;;;;;;1.98;1.50;;;;;;;3.28;78.41;98135.38;5062434;28;20044;-59
2022/02/23 03:52:35;;;;;;;1.58;1.40;;;;;;;3.34;78.81;98150.59;5061399;28;20021;-60
2022/02/23 03:55:00;;;;;;;1.85;1.35;;;;;;;3.36;78.35;98148.84;5062524;28;20043;-60
2022/02/23 03:57:26;;;;;;;1.60;1.50;;;;;;;3.40;78.45;98149.66;5062682;28;20225;-59
2022/02/23 03:59:52;;;;;;;2.60;1.58;;;;;;;3.13;79.12;98149.25;5062241;28;20313;-61
2022/02/23 04:02:17;;;;;;;1.20;1.10;;;;;;;3.22;78.34;98141.44;5062621;28;20025;-60
2022/02/23 04:04:43;;;;;;;1.38;1.27;;;;;;;3.22;78.42;98156.78;5062581;28;20062;-60
2022/02/23 04:07:08;;;;;;;1.40;1.30;;;;;;;3.06;78.26;98139.97;5062370;28;20029;-59
2022/02/23 04:09:34;;;;;;;1.50;1.40;;;;;;;3.20;78.61;98157.66;5062433;28;20040;-59
2022/02/23 04:12:00;;;;;;;3.55;1.30;;;;;;;3.16;78.85;98151.75;5062558;28;20025;-59
2022/02/23 04:14:25;;;;;;;1.55;1.45;;;;;;;3.13;78.58;98154.34;5058986;28;20033;-60
2022/02/23 04:16:51;;;;;;;3.55;1.40;;;;;;;3.09;78.69;98162.94;5051153;28;20037;-60
2022/02/23 04:19:17;;;;;;;1.17;1.13;;;;;;;3.11;78.51;98163.78;5053596;28;20020;-59
2022/02/23 04:21:43;;;;;;;2.92;1.40;;;;;;;3.13;78.90;98159.47;5062435;28;20044;-60
2022/02/23 04:24:09;;;;;;;2.92;1.52;;;;;;;3.19;78.67;98173.88;5062116;28;20029;-60
2022/02/23 04:26:35;;;;;;;2.30;1.90;;;;;;;3.18;79.14;98167.06;5062036;28;20025;-61
2022/02/23 04:29:02;;;;;;;1.70;1.60;;;;;;;3.09;79.17;98173.19;5044813;28;20029;-60
2022/02/23 04:31:28;;;;;;;3.95;1.70;;;;;;;3.05;79.40;98174.94;5062088;28;20056;-60
2022/02/23 04:33:54;;;;;;;1.85;1.70;;;;;;;3.02;79.38;98179.25;5060934;28;20037;-60
2022/02/23 04:36:20;;;;;;;2.10;1.60;;;;;;;3.06;78.86;98179.19;5062073;28;20070;-60
2022/02/23 04:38:46;;;;;;;1.73;1.50;;;;;;;3.05;79.02;98174.94;5061984;28;20043;-59
2022/02/23 04:41:12;;;;;;;2.05;1.85;;;;;;;3.14;78.78;98184.19;5062240;28;20206;-60
2022/02/23 04:43:38;;;;;;;1.60;1.48;;;;;;;2.90;79.29;98182.84;5061972;28;20078;-62
2022/02/23 04:46:08;;;;;;;2.63;1.60;;;;;;;2.97;79.36;98209.19;5061780;28;20341;-61
2022/02/23 04:48:34;;;;;;;1.88;1.67;;;;;;;3.03;80.58;98197.13;5061578;28;20032;-60
2022/02/23 04:51:00;;;;;;;1.92;1.67;;;;;;;3.05;80.49;98197.09;5061698;28;20032;-60
2022/02/23 04:53:25;;;;;;;1.70;1.60;;;;;;;2.94;81.12;98187.88;5061803;28;20028;-60
2022/02/23 04:55:51;;;;;;;2.08;1.75;;;;;;;3.04;80.56;98198.00;5061864;28;20285;-60
2022/02/23 04:58:17;;;;;;;1.77;1.67;;;;;;;3.05;80.89;98199.66;5061907;28;20025;-59
2022/02/23 05:00:43;;;;;;;1.80;1.70;;;;;;;2.98;80.90;98198.06;5061700;28;20371;-60
2022/02/23 05:03:08;;;;;;;1.55;1.45;;;;;;;3.02;81.77;98192.91;5062307;28;20037;-60
2022/02/23 05:05:34;;;;;;;2.10;1.75;;;;;;;3.05;81.62;98207.34;5065339;28;20108;-61
2022/02/23 05:08:00;;;;;;;1.73;1.45;;;;;;;2.90;81.61;98203.31;5058908;28;20045;-61
2022/02/23 05:10:26;;;;;;;2.53;1.58;;;;;;;2.94;82.45;98213.47;5055885;28;20092;-60
2022/02/23 05:12:52;;;;;;;1.65;1.52;;;;;;;2.91;83.01;98213.50;5065793;28;20314;-61
2022/02/23 05:15:18;;;;;;;2.00;1.80;;;;;;;2.95;82.67;98214.31;5065479;28;20048;-60
2022/02/23 05:17:44;;;;;;;1.63;1.52;;;;;;;2.80;83.92;98220.47;5065522;28;20067;-59
2022/02/23 05:20:10;;;;;;;2.88;1.90;;;;;;;2.85;84.06;98228.09;5064041;28;20266;-60
2022/02/23 05:22:36;;;;;;;2.22;1.80;;;;;;;2.84;84.27;98242.59;5064657;28;20031;-59
2022/02/23 05:25:03;;;;;;;2.97;2.10;;;;;;;2.82;83.58;98229.00;5065239;28;20025;-59
2022/02/23 05:27:29;;;;;;;2.40;1.92;;;;;;;2.73;83.87;98231.66;5065311;28;20221;-61
2022/02/23 05:29:55;;;;;;;2.17;1.88;;;;;;;2.74;84.69;98238.47;5065088;28;20033;-61
2022/02/23 05:32:20;;;;;;;2.53;1.92;;;;;;;2.87;84.53;98236.59;5064887;28;20025;-61
2022/02/23 05:34:46;;;;;;;7.93;2.30;;;;;;;2.80;84.24;98246.03;5064781;28;20025;-61
2022/02/23 05:37:12;;;;;;;2.45;2.15;;;;;;;2.84;84.65;98237.47;5065028;28;20020;-61
2022/02/23 05:39:37;;;;;;;2.35;1.75;;;;;;;2.80;84.50;98243.50;5065291;28;20044;-61
2022/02/23 05:42:04;;;;;;;2.15;1.90;;;;;;;2.86;84.24;98253.63;5065328;28;20075;-60
2022/02/23 05:44:29;;;;;;;2.40;2.20;;;;;;;2.93;84.52;98246.72;5065028;28;20040;-60
2022/02/23 05:46:55;;;;;;;2.85;2.13;;;;;;;2.97;83.83;98253.50;5065211;28;20029;-60
2022/02/23 05:49:21;;;;;;;2.67;2.10;;;;;;;2.69;84.73;98264.06;5064965;28;20048;-59
2022/02/23 05:51:47;;;;;;;2.17;1.80;;;;;;;2.74;84.89;98264.03;5064910;28;20029;-59
2022/02/23 05:54:13;;;;;;;2.92;2.20;;;;;;;2.74;84.38;98266.59;5056700;28;20144;-60
2022/02/23 05:56:39;;;;;;;4.90;2.10;;;;;;;2.73;85.19;98259.78;5056383;28;20029;-57
2022/02/23 05:59:04;;;;;;;6.05;2.10;;;;;;;2.80;84.85;98279.28;5062992;28;20021;-58
2022/02/23 06:01:30;;;;;;;2.45;1.92;;;;;;;2.88;84.27;98277.47;5062595;28;20036;-60
2022/02/23 06:03:56;;;;;;;3.55;1.98;;;;;;;2.76;84.51;98286.16;5064148;28;20102;-60
2022/02/23 06:06:22;;;;;;;3.97;2.10;;;;;;;2.82;85.27;98285.22;5064380;28;20028;-60
2022/02/23 06:08:47;;;;;;;2.42;2.00;;;;;;;2.82;84.75;98287.78;5052739;28;20033;-59
2022/02/23 06:11:13;;;;;;;5.50;2.13;;;;;;;2.81;84.56;98298.88;5064888;28;20080;-60
2022/02/23 06:13:40;;;;;;;3.65;2.20;;;;;;;2.71;84.80;98292.19;5061743;28;20024;-60
2022/02/23 06:16:06;;;;;;;2.38;1.80;;;;;;;2.79;84.68;98300.59;5061443;28;20036;-60
2022/02/23 06:18:32;;;;;;;2.40;1.98;;;;;;;2.78;84.49;98292.94;5063360;28;20024;-60
2022/02/23 06:20:58;;;;;;;5.90;1.98;;;;;;;2.87;83.64;98306.47;5064705;28;20060;-60
2022/02/23 06:23:24;;;;;;;1.95;1.75;;;;;;;2.91;83.53;98309.84;5064083;28;20031;-60
2022/02/23 06:25:53;;;;;;;1.67;1.58;;;;;;;2.83;83.18;98306.53;5064259;28;20321;-60
2022/02/23 06:28:19;;;;;;;1.98;1.67;;;;;;;2.99;83.03;98309.72;5064299;28;20248;-60
2022/02/23 06:30:45;;;;;;;2.53;1.67;;;;;;;2.82;82.96;98318.47;5063309;28;20063;-60
2022/02/23 06:33:11;;;;;;;3.00;1.80;;;;;;;2.83;82.80;98327.81;5062661;28;20075;-60
2022/02/23 06:35:38;;;;;;;2.00;1.80;;;;;;;2.79;83.18;98326.16;5062629;28;20317;-59
2022/02/23 06:38:04;;;;;;;1.85;1.60;;;;;;;2.99;82.75;98332.72;5064327;28;20036;-60
2022/02/23 06:40:30;;;;;;;2.30;1.80;;;;;;;3.01;81.93;98328.47;5063961;28;20081;-60
2022/02/23 06:42:56;;;;;;;2.33;1.85;;;;;;;3.06;81.72;98335.19;5063859;28;20056;-59
2022/02/23 06:45:22;;;;;;;1.73;1.60;;;;;;;2.91;81.84;98338.78;5063920;28;20032;-59
2022/02/23 06:47:47;;;;;;;3.30;1.67;;;;;;;3.08;81.60;98342.84;5063903;28;20328;-58
2022/02/23 06:50:13;;;;;;;2.00;1.70;;;;;;;3.15;81.26;98347.03;5063981;28;20084;-58
2022/02/23 06:52:40;;;;;;;3.50;1.80;;;;;;;2.72;81.46;98284.50;5063576;28;20097;-59
2022/02/23 06:55:07;;;;;;;2.05;1.70;;;;;;;3.11;80.63;98358.16;5063666;28;20048;-60
2022/02/23 06:57:41;;;;;;;2.17;1.70;;;;;;;3.10;81.35;98357.28;5046749;28;20025;-58
2022/02/23 07:00:09;;;;;;;2.10;1.65;;;;;;;3.18;80.50;98357.22;5062097;28;20045;-59
2022/02/23 07:02:35;;;;;;;3.22;1.60;;;;;;;2.85;80.29;98318.44;5062766;28;20048;-59
2022/02/23 07:05:06;;;;;;;2.58;1.52;;;;;;;3.30;79.88;98365.59;5063140;28;20060;-60
2022/02/23 07:07:32;;;;;;;1.63;1.52;;;;;;;3.25;79.59;98365.63;5060239;28;20044;-61
2022/02/23 07:09:58;;;;;;;2.13;1.60;;;;;;;3.13;80.18;98361.53;5059553;28;20021;-60
2022/02/23 07:12:24;;;;;;;2.10;1.38;;;;;;;3.16;80.44;98365.75;5063258;28;20025;-60
2022/02/23 07:14:50;;;;;;;3.15;1.70;;;;;;;3.34;79.79;98373.19;5060284;28;20033;-61
2022/02/23 07:17:16;;;;;;;1.67;1.42;;;;;;;3.11;80.33;98365.84;5061171;28;20029;-61
2022/02/23 07:19:41;;;;;;;2.35;1.80;;;;;;;3.23;80.19;98357.97;5062841;28;20044;-60
2022/02/23 07:22:07;;;;;;;2.47;1.50;;;;;;;3.22;80.17;98371.66;5062868;28;20021;-60
2022/02/23 07:24:35;;;;;;;2.47;1.55;;;;;;;3.29;79.98;98369.84;5062941;28;20037;-61
2022/02/23 07:27:01;;;;;;;3.47;2.40;;;;;;;3.28;79.35;98370.72;5062882;28;20020;-60
2022/02/23 07:29:27;;;;;;;6.43;1.98;;;;;;;3.36;78.69;98391.91;5045968;28;20219;-60
2022/02/23 07:31:53;;;;;;;2.60;1.60;;;;;;;3.46;79.54;98384.97;5055274;28;20028;-60
2022/02/23 07:34:18;;;;;;;2.95;1.73;;;;;;;3.44;78.88;98396.94;5049011;28;20029;-59
2022/02/23 07:36:44;;;;;;;3.38;2.10;;;;;;;3.38;79.40;98395.31;5047018;28;20101;-60
2022/02/23 07:39:10;;;;;;;1.77;1.60;;;;;;;3.37;79.32;98385.94;5061763;28;20044;-58
2022/02/23 07:41:36;;;;;;;2.53;1.90;;;;;;;3.46;78.11;98392.66;5062603;28;20025;-61
2022/02/23 07:44:03;;;;;;;1.88;1.70;;;;;;;3.50;78.29;98394.28;5061582;28;20020;-60
2022/02/23 07:46:29;;;;;;;2.58;1.90;;;;;;;3.46;78.24;98400.31;5058620;28;20082;-61
2022/02/23 07:49:00;;;;;;;3.38;1.92;;;;;;;3.35;78.17;98367.22;5062916;28;20063;-61
2022/02/23 07:51:27;;;;;;;3.43;1.70;;;;;;;3.66;77.49;98412.00;5062784;28;20035;-61
2022/02/23 07:53:54;;;;;;;3.17;1.90;;;;;;;3.50;78.10;98413.94;5062318;28;20454;-61
2022/02/23 07:56:21;;;;;;;1.85;1.70;;;;;;;3.51;78.16;98413.09;5062526;28;20029;-61
2022/02/23 07:58:50;;;;;;;2.42;1.60;;;;;;;3.66;77.47;98417.97;5062543;28;20056;-61
2022/02/23 08:01:35;;;;;;;4.10;2.25;;;;;;;3.77;78.32;98416.09;5062505;28;20025;-61
2022/02/23 08:04:02;;;;;;;5.03;2.35;;;;;;;3.85;77.52;98422.81;5062181;28;20040;-62
2022/02/23 08:06:28;;;;;;;2.22;1.58;;;;;;;3.80;76.95;98418.63;5062307;28;20256;-62
2022/02/23 08:08:55;;;;;;;3.42;1.88;;;;;;;3.97;77.38;98423.47;5060576;28;20023;-61
2022/02/23 08:11:25;;;;;;;2.83;1.70;;;;;;;3.89;76.72;98432.16;5061143;28;20040;-63
2022/02/23 08:13:58;;;;;;;3.38;1.73;;;;;;;3.80;77.03;98433.13;5058153;28;20092;-61
2022/02/23 08:21:57;;;;;;;2.28;1.85;;;;;;;3.87;77.57;98437.28;5062294;28;20082;-61
2022/02/23 08:24:23;;;;;;;2.72;2.03;;;;;;;4.07;76.88;98448.97;5061798;28;20029;-61
2022/02/23 08:26:49;;;;;;;4.30;2.17;;;;;;;3.97;76.43;98454.22;5061910;28;20364;-61
2022/02/23 08:29:15;;;;;;;2.80;1.98;;;;;;;4.19;77.03;98448.78;5062485;28;20029;-61
2022/02/23 08:31:40;;;;;;;3.72;1.85;;;;;;;4.29;76.60;98460.56;5062173;28;20032;-61
2022/02/23 08:34:06;;;;;;;2.25;2.00;;;;;;;4.32;76.73;98460.53;5061590;28;20033;-64
2022/02/23 08:36:32;;;;;;;2.35;1.88;;;;;;;4.14;75.57;98456.53;5061573;28;20024;-63
2022/02/23 08:38:57;;;;;;;4.07;2.00;;;;;;;4.16;75.08;98461.63;5061528;28;20021;-61
2022/02/23 08:41:24;;;;;;;3.45;2.33;;;;;;;4.03;75.64;98452.44;5060188;28;20338;-61
2022/02/23 08:43:50;;;;;;;2.63;1.73;;;;;;;4.05;75.27;98471.22;5060169;28;20221;-62
2022/02/23 08:46:16;;;;;;;4.55;2.60;;;;;;;3.97;75.53;98479.81;5058845;28;20206;-62
2022/02/23 08:48:42;;;;;;;1.98;1.70;;;;;;;3.97;75.35;98482.38;5061478;28;20032;-62
2022/02/23 08:51:07;;;;;;;2.65;1.70;;;;;;;4.15;74.55;98476.16;5060573;28;20119;-62
2022/02/23 08:53:33;;;;;;;3.63;1.60;;;;;;;4.26;74.60;98483.69;5060634;28;20236;-62
2022/02/23 08:55:59;;;;;;;2.40;1.70;;;;;;;4.11;73.92;98482.19;5060205;28;20024;-62
2022/02/23 08:58:24;;;;;;;2.00;1.80;;;;;;;4.04;74.67;98487.44;5061381;28;20021;-62
2022/02/23 09:00:51;;;;;;;2.95;2.00;;;;;;;4.02;75.14;98491.72;5059998;28;20095;-63
2022/02/23 09:03:21;;;;;;;2.45;1.40;;;;;;;3.87;74.12;98501.31;5061518;28;20028;-63
2022/02/23 09:05:47;;;;;;;1.60;1.50;;;;;;;4.07;74.39;98502.75;5061505;28;20057;-61
2022/02/23 09:08:13;;;;;;;1.92;1.17;;;;;;;3.92;74.24;98499.56;5061022;28;20257;-62
2022/02/23 09:10:39;;;;;;;2.28;1.42;;;;;;;3.96;74.29;98502.91;5061694;28;20250;-62
2022/02/23 09:13:05;;;;;;;1.80;1.50;;;;;;;4.06;74.31;98495.94;5061704;28;20067;-61
2022/02/23 09:15:32;;;;;;;2.00;1.45;;;;;;;4.04;73.36;98506.22;5061750;28;20021;-61
2022/02/23 09:17:58;;;;;;;1.67;1.40;;;;;;;4.17;73.89;98513.72;5060186;28;20071;-62
2022/02/23 09:20:24;;;;;;;3.63;1.63;;;;;;;3.98;73.38;98506.31;5061984;28;20067;-62
2022/02/23 09:22:51;;;;;;;1.77;1.40;;;;;;;3.97;73.72;98514.84;5061191;28;20029;-61
2022/02/23 09:25:16;;;;;;;3.13;1.85;;;;;;;4.05;74.24;98518.16;5061134;28;20029;-62
2022/02/23 09:27:42;;;;;;;2.03;1.67;;;;;;;3.81;75.67;98529.56;5061591;28;20031;-63
2022/02/23 09:30:11;;;;;;;3.17;1.80;;;;;;;3.93;75.92;98536.25;5061366;28;20025;-63
2022/02/23 09:32:37;;;;;;;3.00;2.28;;;;;;;3.71;76.60;98540.81;5061525;28;20071;-62
2022/02/23 09:35:03;;;;;;;2.83;1.92;;;;;;;3.91;77.10;98535.44;5060371;28;20309;-62
2022/02/23 09:37:28;;;;;;;2.30;1.83;;;;;;;4.04;76.63;98543.78;5060506;28;20025;-61
2022/02/23 09:39:54;;;;;;;2.35;1.70;;;;;;;4.15;76.43;98547.06;5061505;28;20036;-62
2022/02/23 09:42:20;;;;;;;2.90;1.80;;;;;;;4.08;75.57;98548.84;5061630;28;20032;-62
2022/02/23 09:44:46;;;;;;;3.10;1.70;;;;;;;3.97;76.57;98548.97;5061645;28;20044;-62
2022/02/23 09:47:12;;;;;;;4.82;2.20;;;;;;;3.82;76.82;98541.53;5060442;28;20350;-63
2022/02/23 09:49:37;;;;;;;4.00;2.45;;;;;;;3.98;77.55;98558.38;5042783;28;20135;-61
2022/02/23 09:52:04;;;;;;;2.83;1.85;;;;;;;3.67;77.92;98551.94;5061967;28;20629;-63
2022/02/23 09:54:30;;;;;;;2.58;1.92;;;;;;;3.73;78.20;98569.78;5064603;28;20029;-64
2022/02/23 09:56:57;;;;;;;2.17;1.77;;;;;;;3.89;77.96;98573.00;5064784;28;20070;-62
2022/02/23 09:59:22;;;;;;;1.70;1.60;;;;;;;3.77;77.12;98567.16;5064821;28;20021;-62
2022/02/23 10:01:49;;;;;;;3.00;1.90;;;;;;;3.73;76.71;98577.47;5064950;28;20313;-63
2022/02/23 10:04:19;;;;;;;1.73;1.45;;;;;;;3.94;77.13;98577.19;5063499;28;20056;-63
2022/02/23 10:06:46;;;;;;;3.92;1.80;;;;;;;4.05;76.49;98589.06;5064662;28;20313;-63
2022/02/23 10:09:12;;;;;;;3.15;2.00;;;;;;;3.94;76.28;98597.69;5050442;28;20030;-63
2022/02/23 10:11:42;;;;;;;2.67;1.95;;;;;;;3.76;76.40;98559.50;5064238;28;20115;-63
2022/02/23 10:14:10;;;;;;;4.38;2.05;;;;;;;3.71;75.71;98592.84;5064614;28;20059;-60
2022/02/23 10:16:44;;;;;;;3.63;2.13;;;;;;;3.61;76.53;98565.66;5064287;28;20037;-62
2022/02/23 10:19:18;;;;;;;3.28;1.90;;;;;;;3.36;76.04;98544.63;5064549;28;20033;-62
2022/02/23 10:21:44;;;;;;;5.43;2.38;;;;;;;3.82;75.77;98602.97;5064299;28;20106;-62
2022/02/23 10:24:24;;;;;;;2.55;1.80;;;;;;;3.80;75.52;98613.25;5064440;28;20092;-60
2022/02/23 10:27:02;;;;;;;2.10;1.90;;;;;;;3.74;75.30;98579.16;5064602;28;20333;-61
2022/02/23 10:29:53;;;;;;;2.00;1.67;;;;;;;3.55;74.17;98566.59;5064112;28;20166;-60
2022/02/23 10:32:19;;;;;;;3.60;1.95;;;;;;;3.98;74.15;98617.28;5064267;28;20028;-61
2022/02/23 10:34:47;;;;;;;3.03;1.90;;;;;;;4.06;74.12;98630.00;5063659;28;20082;-62
2022/02/23 10:37:16;;;;;;;2.30;1.20;;;;;;;3.82;73.07;98630.28;5064228;28;20017;-62
2022/02/23 10:39:53;;;;;;;5.13;1.42;;;;;;;3.77;72.67;98602.19;5063959;28;20085;-62
2022/02/23 10:42:21;;;;;;;1.48;1.38;;;;;;;3.88;73.91;98610.59;5063947;28;20025;-61
2022/02/23 10:44:50;;;;;;;2.25;1.70;;;;;;;3.59;73.46;98609.22;5063686;28;20033;-60
2022/02/23 10:47:24;;;;;;;2.38;1.50;;;;;;;3.49;72.35;98592.22;5063715;28;20021;-61
2022/02/23 10:50:05;;;;;;;1.35;1.10;;;;;;;3.76;71.47;98674.72;5063993;28;20317;-61
2022/02/23 10:52:51;;;;;;;1.30;1.20;;;;;;;3.50;72.68;98618.69;5050675;28;20033;-60
2022/02/23 10:55:29;;;;;;;2.00;1.55;;;;;;;3.49;72.72;98605.03;5063575;28;20107;-61
2022/02/23 10:57:56;;;;;;;1.95;1.45;;;;;;;3.96;72.37;98685.63;5063676;28;20033;-62
2022/02/23 11:00:26;;;;;;;2.28;1.23;;;;;;;3.76;71.80;98672.16;5052761;28;20029;-62
2022/02/23 11:02:53;;;;;;;1.65;1.20;;;;;;;3.81;71.23;98678.09;5063350;28;20040;-61
2022/02/23 11:05:23;;;;;;;1.52;1.38;;;;;;;3.91;71.65;98683.97;5062009;28;20049;-60
2022/02/23 11:07:51;;;;;;;2.50;1.50;;;;;;;3.41;71.84;98630.72;5058338;28;20037;-61
2022/02/23 11:10:17;;;;;;;4.50;1.70;;;;;;;3.66;72.65;98678.25;5050019;28;20033;-61
2022/02/23 11:12:45;;;;;;;3.28;1.50;;;;;;;3.43;73.17;98640.94;5057503;28;20341;-62
2022/02/23 11:15:16;;;;;;;2.65;1.65;;;;;;;3.71;73.70;98686.75;5063209;28;20025;-59
2022/02/23 11:17:46;;;;;;;5.78;2.10;;;;;;;3.73;73.16;98702.94;5055150;28;20033;-61
2022/02/23 11:20:20;;;;;;;2.08;1.60;;;;;;;3.69;73.39;98693.56;5050912;28;20016;-60
2022/02/23 11:22:50;;;;;;;3.88;1.83;;;;;;;3.80;72.79;98713.13;5063438;28;20037;-60
2022/02/23 11:25:18;;;;;;;2.25;1.60;;;;;;;3.77;73.30;98702.03;5062857;28;20314;-61
2022/02/23 11:27:49;;;;;;;1.90;1.63;;;;;;;3.86;72.59;98737.78;5062840;28;20033;-61
2022/02/23 11:30:19;;;;;;;2.17;1.87;;;;;;;3.82;72.75;98728.47;5045859;28;20029;-61
2022/02/23 11:32:45;;;;;;;3.67;1.65;;;;;;;3.85;73.06;98731.00;5063195;28;20472;-63
2022/02/23 11:35:11;;;;;;;3.15;2.30;;;;;;;3.69;72.92;98729.41;5063422;28;20306;-61
2022/02/23 11:37:38;;;;;;;2.28;1.63;;;;;;;3.73;72.08;98741.34;5062775;28;20248;-60
2022/02/23 11:40:07;;;;;;;1.70;1.52;;;;;;;3.51;71.81;98726.16;5052963;28;20037;-61
2022/02/23 11:42:35;;;;;;;1.90;1.60;;;;;;;3.56;72.61;98732.13;5057885;28;20033;-60
2022/02/23 11:45:13;;;;;;;2.97;1.80;;;;;;;3.78;72.80;98753.22;5061732;28;20032;-62